createdAt,value
2019-05-20T00:00:00.715Z,6.15
2019-05-20T00:02:30.408Z,9.33
2019-05-20T00:05:00.035Z,8.78
2019-05-20T00:07:29.683Z,6.33
2019-05-20T00:09:59.356Z,12.25
2019-05-20T00:12:28.991Z,12.90
2019-05-20T00:15:02.715Z,6.65
2019-05-20T00:17:33.609Z,7.03
2019-05-20T00:20:05.313Z,16.87
2019-05-20T00:22:34.917Z,5.95
2019-05-20T00:25:05.629Z,10.20
2019-05-20T00:27:35.282Z,7.53
2019-05-20T00:30:05.801Z,4.95
2019-05-20T00:32:41.889Z,7.17
2019-05-20T00:35:13.317Z,7.45
2019-05-20T00:37:44.610Z,9.28
2019-05-20T00:40:14.377Z,7.45
2019-05-20T00:42:44.096Z,12.40
2019-05-20T00:45:16.817Z,9.60
2019-05-20T00:47:46.415Z,7.78
2019-05-20T00:50:16.272Z,7.28
2019-05-20T00:52:47.553Z,8.15
2019-05-20T00:55:30.103Z,13.43
2019-05-20T00:57:59.777Z,7.78
2019-05-20T01:00:35.485Z,5.85
2019-05-20T01:03:05.206Z,12.45
2019-05-20T01:05:34.910Z,11.12
2019-05-20T01:08:04.563Z,7.78
2019-05-20T01:10:34.255Z,7.62
2019-05-20T01:13:04.014Z,9.25
2019-05-20T01:15:33.747Z,8.00
2019-05-20T01:18:06.833Z,9.83
2019-05-20T01:20:36.547Z,7.20
2019-05-20T01:23:06.176Z,8.68
2019-05-20T01:25:41.946Z,12.47
2019-05-20T01:28:12.524Z,6.17
2019-05-20T01:30:43.102Z,10.72
2019-05-20T01:33:14.218Z,9.58
2019-05-20T01:35:44.185Z,8.90
2019-05-20T01:38:19.881Z,7.33
2019-05-20T01:40:51.728Z,9.70
2019-05-20T01:43:21.375Z,13.60
2019-05-20T01:45:50.998Z,8.25
2019-05-20T01:48:20.627Z,13.30
2019-05-20T01:50:50.263Z,10.48
2019-05-20T01:53:19.870Z,8.60
2019-05-20T01:55:49.494Z,8.40
2019-05-20T01:58:19.116Z,9.08
2019-05-20T02:00:51.845Z,9.30
2019-05-20T02:03:31.092Z,8.08
2019-05-20T02:05:52.771Z,9.50
2019-05-20T02:08:22.378Z,8.03
2019-05-20T02:10:56.496Z,8.30
2019-05-20T02:13:45.856Z,9.90
2019-05-20T02:16:15.756Z,5.08
2019-05-20T02:18:45.401Z,13.98
2019-05-20T02:21:15.009Z,7.47
2019-05-20T02:23:44.634Z,14.28
2019-05-20T02:26:14.312Z,7.92
2019-05-20T02:28:46.934Z,7.80
2019-05-20T02:31:16.533Z,7.00
2019-05-20T02:33:52.272Z,6.08
2019-05-20T02:36:20.505Z,8.45
2019-05-20T02:38:51.387Z,6.42
2019-05-20T02:41:21.151Z,12.00
2019-05-20T02:43:51.048Z,6.47
2019-05-20T02:46:23.475Z,6.50
2019-05-20T02:48:58.073Z,12.43
2019-05-20T02:51:34.425Z,5.90
2019-05-20T02:54:04.358Z,12.68
2019-05-20T02:56:34.065Z,10.72
2019-05-20T02:59:04.315Z,9.25
2019-05-20T03:01:33.921Z,7.85
2019-05-20T03:04:11.576Z,9.78
2019-05-20T03:06:36.464Z,12.53
2019-05-20T03:09:06.317Z,10.78
2019-05-20T03:11:35.926Z,7.83
2019-05-20T03:14:05.659Z,6.35
2019-05-20T03:16:36.509Z,15.30
2019-05-20T03:19:07.113Z,14.50
2019-05-20T03:21:37.138Z,8.20
2019-05-20T03:24:06.764Z,14.68
2019-05-20T03:26:36.476Z,10.32
2019-05-20T03:29:06.170Z,11.15
2019-05-20T03:31:35.770Z,8.10
2019-05-20T03:34:05.406Z,9.93
2019-05-20T03:36:36.819Z,7.85
2019-05-20T03:39:07.257Z,11.38
2019-05-20T03:41:36.888Z,10.35
2019-05-20T03:44:06.501Z,11.50
2019-05-20T03:46:36.132Z,11.63
2019-05-20T03:49:05.834Z,6.90
2019-05-20T03:51:36.421Z,11.53
2019-05-20T03:54:06.046Z,9.08
2019-05-20T03:56:35.653Z,7.87
2019-05-20T03:59:06.635Z,10.13
2019-05-20T04:01:36.283Z,10.95
2019-05-20T04:04:05.899Z,8.30
2019-05-20T04:06:35.556Z,8.53
2019-05-20T04:09:06.836Z,12.50
2019-05-20T04:11:36.558Z,6.05
2019-05-20T04:14:06.263Z,11.65
2019-05-20T04:16:35.887Z,11.75
2019-05-20T04:19:05.590Z,11.65
2019-05-20T04:21:35.277Z,7.22
2019-05-20T04:24:07.711Z,9.20
2019-05-20T04:26:37.324Z,13.20
2019-05-20T04:29:07.019Z,7.72
2019-05-20T04:31:36.629Z,10.98
2019-05-20T04:34:08.818Z,7.55
2019-05-20T04:36:38.455Z,8.05
2019-05-20T04:39:08.285Z,10.60
2019-05-20T04:41:37.920Z,5.78
2019-05-20T04:44:07.544Z,11.85
2019-05-20T04:46:39.154Z,12.35
2019-05-20T04:49:20.008Z,14.85
2019-05-20T04:51:47.858Z,7.58
2019-05-20T04:54:17.481Z,9.25
2019-05-20T04:56:47.144Z,12.95
2019-05-20T04:59:16.812Z,7.08
2019-05-20T05:01:47.862Z,9.20
2019-05-20T05:04:17.509Z,10.88
2019-05-20T05:06:47.118Z,9.03
2019-05-20T05:09:16.888Z,13.30
2019-05-20T05:11:46.581Z,6.90
2019-05-20T05:14:19.318Z,7.67
2019-05-20T05:16:49.183Z,13.70
2019-05-20T05:19:18.801Z,12.65
2019-05-20T05:21:48.540Z,6.37
2019-05-20T05:24:18.266Z,9.78
2019-05-20T05:26:48.061Z,5.53
2019-05-20T05:29:17.927Z,12.80
2019-05-20T05:31:47.656Z,13.45
2019-05-20T05:34:17.354Z,6.50
2019-05-20T05:36:46.973Z,6.05
2019-05-20T05:39:17.780Z,8.73
2019-05-20T05:41:47.418Z,10.98
2019-05-20T05:44:17.038Z,5.83
2019-05-20T05:46:49.591Z,5.90
2019-05-20T05:49:19.216Z,8.23
2019-05-20T05:51:48.872Z,8.48
2019-05-20T05:54:18.565Z,12.80
2019-05-20T05:56:48.178Z,7.28
2019-05-20T05:59:17.805Z,8.95
2019-05-20T06:01:49.949Z,6.97
2019-05-20T06:04:21.173Z,8.95
2019-05-20T06:06:50.812Z,5.00
2019-05-20T06:09:20.492Z,5.45
2019-05-20T06:11:50.501Z,5.72
2019-05-20T06:14:20.110Z,5.40
2019-05-20T06:16:49.797Z,8.05
2019-05-20T06:19:19.407Z,7.78
2019-05-20T06:21:49.051Z,7.15
2019-05-20T06:24:18.809Z,4.33
2019-05-20T06:26:48.470Z,9.48
2019-05-20T06:29:20.514Z,6.58
2019-05-20T06:31:50.393Z,8.08
2019-05-20T06:34:20.156Z,5.22
2019-05-20T06:36:51.492Z,5.85
2019-05-20T06:39:21.108Z,5.95
2019-05-20T06:41:50.815Z,8.23
2019-05-20T06:44:20.452Z,7.35
2019-05-20T06:46:50.093Z,7.55
2019-05-20T06:49:22.643Z,4.80
2019-05-20T06:52:04.803Z,7.05
2019-05-20T06:54:34.520Z,11.80
2019-05-20T06:57:05.995Z,6.33
2019-05-20T06:59:35.919Z,4.50
2019-05-20T07:02:05.787Z,13.48
2019-05-20T07:04:35.399Z,5.95
2019-05-20T07:07:19.878Z,7.58
2019-05-20T07:09:36.526Z,6.80
2019-05-20T07:12:06.169Z,10.75
2019-05-20T07:14:35.885Z,4.53
2019-05-20T07:17:08.315Z,7.53
2019-05-20T07:19:40.799Z,6.17
2019-05-20T07:22:10.424Z,7.08
2019-05-20T07:24:40.057Z,7.10
2019-05-20T07:27:09.755Z,7.22
2019-05-20T07:29:39.425Z,7.08
2019-05-20T07:32:09.096Z,12.00
2019-05-20T07:34:39.864Z,6.55
2019-05-20T07:37:09.526Z,4.83
2019-05-20T07:39:39.195Z,10.20
2019-05-20T07:42:08.840Z,4.58
2019-05-20T07:44:38.474Z,4.17
2019-05-20T07:47:11.245Z,7.70
2019-05-20T07:49:41.285Z,7.70
2019-05-20T07:52:11.346Z,9.75
2019-05-20T07:54:41.431Z,9.48
2019-05-20T07:57:14.060Z,4.50
2019-05-20T07:59:45.549Z,8.50
2019-05-20T08:02:15.316Z,7.85
2019-05-20T08:04:45.015Z,6.20
2019-05-20T08:07:27.568Z,11.60
2019-05-20T08:09:46.674Z,8.08
2019-05-20T08:12:16.456Z,11.70
2019-05-20T08:14:46.090Z,8.10
2019-05-20T08:17:17.356Z,6.72
2019-05-20T08:19:46.982Z,12.10
2019-05-20T08:22:16.624Z,7.28
2019-05-20T08:24:48.058Z,5.47
2019-05-20T08:27:17.767Z,6.37
2019-05-20T08:29:49.196Z,8.33
2019-05-20T08:32:18.887Z,8.00
2019-05-20T08:34:48.625Z,6.33
2019-05-20T08:37:18.295Z,6.12
2019-05-20T08:39:48.116Z,3.65
2019-05-20T08:42:17.750Z,6.17
2019-05-20T08:44:48.474Z,7.15
2019-05-20T08:47:21.115Z,5.20
2019-05-20T08:49:54.108Z,4.40
2019-05-20T08:52:25.624Z,10.32
2019-05-20T08:54:55.249Z,8.83
2019-05-20T08:57:24.912Z,6.03
2019-05-20T08:59:56.398Z,11.33
2019-05-20T09:02:28.760Z,7.58
2019-05-20T09:04:58.509Z,6.22
2019-05-20T09:07:28.300Z,5.35
2019-05-20T09:10:01.974Z,6.97
2019-05-20T09:12:31.685Z,17.02
2019-05-20T09:15:01.327Z,23.55
2019-05-20T09:17:31.057Z,6.72
2019-05-20T09:20:05.401Z,6.10
2019-05-20T09:22:35.092Z,5.55
2019-05-20T09:25:08.075Z,7.55
2019-05-20T09:27:38.460Z,6.92
2019-05-20T09:30:09.049Z,5.50
2019-05-20T09:32:42.783Z,6.75
2019-05-20T09:35:12.484Z,4.70
2019-05-20T09:37:42.253Z,4.83
2019-05-20T09:40:13.617Z,7.97
2019-05-20T09:42:43.410Z,8.48
2019-05-20T09:45:13.218Z,5.42
2019-05-20T09:47:42.874Z,5.97
2019-05-20T09:50:17.597Z,9.60
2019-05-20T09:52:48.494Z,5.37
2019-05-20T09:55:18.197Z,7.50
2019-05-20T09:57:47.843Z,9.53
2019-05-20T10:00:17.847Z,6.70
2019-05-20T10:02:47.488Z,5.35
2019-05-20T10:05:17.181Z,4.65
2019-05-20T10:07:46.828Z,5.62
2019-05-20T10:10:18.386Z,9.68
2019-05-20T10:12:48.207Z,5.05
2019-05-20T10:15:18.133Z,4.58
2019-05-20T10:17:50.349Z,4.42
2019-05-20T10:20:22.085Z,5.78
2019-05-20T10:22:51.714Z,6.25
2019-05-20T10:25:21.590Z,12.75
2019-05-20T10:28:09.405Z,15.93
2019-05-20T10:30:39.065Z,7.62
2019-05-20T10:33:10.248Z,3.98
2019-05-20T10:35:40.358Z,5.35
2019-05-20T10:38:12.542Z,6.15
2019-05-20T10:40:42.634Z,5.55
2019-05-20T10:43:12.330Z,4.75
2019-05-20T10:45:42.088Z,6.80
2019-05-20T10:48:11.805Z,7.17
2019-05-20T10:50:45.623Z,6.37
2019-05-20T10:53:18.009Z,9.53
2019-05-20T10:55:47.673Z,6.50
2019-05-20T10:58:17.344Z,5.80
2019-05-20T11:01:01.679Z,4.67
2019-05-20T11:03:18.287Z,4.67
2019-05-20T11:05:47.933Z,7.10
2019-05-20T11:08:17.700Z,7.17
2019-05-20T11:10:49.765Z,10.58
2019-05-20T11:13:19.409Z,10.58
2019-05-20T11:15:49.037Z,8.43
2019-05-20T11:18:19.816Z,6.90
2019-05-20T11:20:51.847Z,5.97
2019-05-20T11:23:21.587Z,4.95
2019-05-20T11:25:51.350Z,9.93
2019-05-20T11:28:20.952Z,8.78
2019-05-20T11:30:50.605Z,7.80
2019-05-20T11:33:20.296Z,5.83
2019-05-20T11:35:50.003Z,5.78
2019-05-20T11:38:20.855Z,4.75
2019-05-20T11:40:50.519Z,4.85
2019-05-20T11:43:20.167Z,7.62
2019-05-20T11:45:49.816Z,7.80
2019-05-20T11:48:22.164Z,11.60
2019-05-20T11:50:51.918Z,5.60
2019-05-20T11:53:21.886Z,4.75
2019-05-20T11:55:52.272Z,5.50
2019-05-20T11:58:22.045Z,4.83
2019-05-20T12:00:51.803Z,7.83
2019-05-20T12:03:24.316Z,7.70
2019-05-20T12:05:54.042Z,5.03
2019-05-20T12:08:23.768Z,5.95
2019-05-20T12:10:53.406Z,4.87
2019-05-20T12:13:24.898Z,11.95
2019-05-20T12:15:54.515Z,6.75
2019-05-20T12:18:24.226Z,4.70
2019-05-20T12:20:53.903Z,6.53
2019-05-20T12:23:23.685Z,11.33
2019-05-20T12:25:53.337Z,6.33
2019-05-20T12:28:27.500Z,5.75
2019-05-20T12:30:59.680Z,12.10
2019-05-20T12:33:29.364Z,9.48
2019-05-20T12:35:59.011Z,5.90
2019-05-20T12:38:28.657Z,6.45
2019-05-20T12:41:01.038Z,10.05
2019-05-20T12:43:30.690Z,4.33
2019-05-20T12:46:00.409Z,4.53
2019-05-20T12:48:31.056Z,7.85
2019-05-20T12:51:00.790Z,6.90
2019-05-20T12:53:30.511Z,10.05
2019-05-20T12:56:00.224Z,7.05
2019-05-20T12:58:29.873Z,10.72
2019-05-20T13:00:59.582Z,6.10
2019-05-20T13:03:29.264Z,5.70
2019-05-20T13:05:59.208Z,7.37
2019-05-20T13:08:31.424Z,8.40
2019-05-20T13:11:01.131Z,8.60
2019-05-20T13:13:30.907Z,12.88
2019-05-20T13:16:00.736Z,7.33
2019-05-20T13:18:30.430Z,9.35
2019-05-20T13:21:01.474Z,6.15
2019-05-20T13:23:31.101Z,9.33
2019-05-20T13:26:00.741Z,6.75
2019-05-20T13:28:32.569Z,8.98
2019-05-20T13:31:02.347Z,5.95
2019-05-20T13:33:32.024Z,7.58
2019-05-20T13:36:01.806Z,8.20
2019-05-20T13:38:31.497Z,9.40
2019-05-20T13:41:05.124Z,8.03
2019-05-20T13:43:34.920Z,9.53
2019-05-20T13:46:04.737Z,6.45
2019-05-20T13:48:36.824Z,6.80
2019-05-20T13:51:06.716Z,6.80
2019-05-20T13:53:42.566Z,7.95
2019-05-20T13:56:12.272Z,8.28
2019-05-20T13:58:43.129Z,16.65
2019-05-20T14:01:13.754Z,6.12
2019-05-20T14:03:43.409Z,8.40
2019-05-20T14:06:14.318Z,14.75
2019-05-20T14:08:43.989Z,16.97
2019-05-20T14:11:15.858Z,7.62
2019-05-20T14:13:48.326Z,9.93
2019-05-20T14:16:20.924Z,8.60
2019-05-20T14:18:50.551Z,6.92
2019-05-20T14:21:20.166Z,7.47
2019-05-20T14:23:52.744Z,10.43
2019-05-20T14:26:25.062Z,10.43
2019-05-20T14:28:55.786Z,14.23
2019-05-20T14:31:27.154Z,17.80
2019-05-20T14:33:56.793Z,12.18
2019-05-20T14:36:39.581Z,10.03
2019-05-20T14:38:57.777Z,6.83
2019-05-20T14:41:27.433Z,5.60
2019-05-20T14:43:57.097Z,5.00
2019-05-20T14:46:26.748Z,7.70
2019-05-20T14:49:02.140Z,5.85
2019-05-20T14:51:29.604Z,6.45
2019-05-20T14:54:00.039Z,9.55
2019-05-20T14:56:29.725Z,14.13
2019-05-20T14:58:59.437Z,5.25
2019-05-20T15:01:32.169Z,8.05
2019-05-20T15:04:01.920Z,6.95
2019-05-20T15:06:31.569Z,15.55
2019-05-20T15:09:01.494Z,12.03
2019-05-20T15:11:38.372Z,9.68
2019-05-20T15:14:06.630Z,8.23
2019-05-20T15:16:36.329Z,11.30
2019-05-20T15:19:08.541Z,7.55
2019-05-20T15:21:40.005Z,7.37
2019-05-20T15:24:09.713Z,14.60
2019-05-20T15:26:40.828Z,13.75
2019-05-20T15:29:26.924Z,7.35
2019-05-20T15:31:41.867Z,7.28
2019-05-20T15:34:11.578Z,12.30
2019-05-20T15:36:44.514Z,8.93
2019-05-20T15:39:14.203Z,7.40
2019-05-20T15:41:43.963Z,10.10
2019-05-20T15:44:13.777Z,6.00
2019-05-20T15:46:43.412Z,9.30
2019-05-20T15:49:13.206Z,7.42
2019-05-20T15:51:42.853Z,6.67
2019-05-20T15:54:13.465Z,6.20
2019-05-20T15:56:43.225Z,12.10
2019-05-20T15:59:12.983Z,7.62
2019-05-20T16:01:42.628Z,10.70
2019-05-20T16:04:14.723Z,14.65
2019-05-20T16:06:46.018Z,8.75
2019-05-20T16:09:17.610Z,6.35
2019-05-20T16:11:48.113Z,10.80
2019-05-20T16:14:17.739Z,7.65
2019-05-20T16:16:48.819Z,9.63
2019-05-20T16:19:19.765Z,13.20
2019-05-20T16:21:49.565Z,8.70
2019-05-20T16:24:19.329Z,7.60
2019-05-20T16:26:51.807Z,7.65
2019-05-20T16:29:24.244Z,12.20
2019-05-20T16:31:53.895Z,33.70
2019-05-20T16:34:23.555Z,30.55
2019-05-20T16:36:53.598Z,26.85
2019-05-20T16:39:24.914Z,33.63
2019-05-20T16:41:54.610Z,27.20
2019-05-20T16:44:24.411Z,33.88
2019-05-20T16:46:55.328Z,30.88
2019-05-20T16:49:25.043Z,25.82
2019-05-20T16:51:54.702Z,31.85
2019-05-20T16:54:24.418Z,16.75
2019-05-20T16:56:54.082Z,28.00
2019-05-20T16:59:23.735Z,22.27
2019-05-20T17:01:53.481Z,26.95
2019-05-20T17:04:23.447Z,19.65
2019-05-20T17:06:53.415Z,16.77
2019-05-20T17:09:24.375Z,17.02
2019-05-20T17:11:56.053Z,19.23
2019-05-20T17:14:44.983Z,19.77
2019-05-20T17:17:14.669Z,11.83
2019-05-20T17:19:44.736Z,22.98
2019-05-20T17:22:14.396Z,19.95
2019-05-20T17:24:44.157Z,25.32
2019-05-20T17:27:14.002Z,16.27
2019-05-20T17:29:43.711Z,14.95
2019-05-20T17:32:13.352Z,15.00
2019-05-20T17:34:44.155Z,19.52
2019-05-20T17:37:13.953Z,13.70
2019-05-20T17:39:45.734Z,23.73
2019-05-20T17:42:16.364Z,17.87
2019-05-20T17:44:47.812Z,16.52
2019-05-20T17:47:20.056Z,14.38
2019-05-20T17:49:56.714Z,25.32
2019-05-20T17:52:31.929Z,16.57
2019-05-20T17:55:01.756Z,19.00
2019-05-20T17:57:31.419Z,16.70
2019-05-20T18:00:01.172Z,18.35
2019-05-20T18:02:31.963Z,14.10
2019-05-20T18:05:01.634Z,16.00
2019-05-20T18:07:31.364Z,19.48
2019-05-20T18:10:01.102Z,12.47
2019-05-20T18:12:30.816Z,20.82
2019-05-20T18:15:03.271Z,17.55
2019-05-20T18:17:34.030Z,14.23
2019-05-20T18:20:04.176Z,25.43
2019-05-20T18:22:34.532Z,13.72
2019-05-20T18:25:04.533Z,13.65
2019-05-20T18:27:37.163Z,15.05
2019-05-20T18:30:12.519Z,11.15
2019-05-20T18:32:43.334Z,24.30
2019-05-20T18:35:13.212Z,17.60
2019-05-20T18:37:42.842Z,11.20
2019-05-20T18:40:15.076Z,18.50
2019-05-20T18:42:47.726Z,15.38
2019-05-20T18:45:17.446Z,7.92
2019-05-20T18:47:49.696Z,19.90
2019-05-20T18:50:19.645Z,8.90
2019-05-20T18:52:49.327Z,10.00
2019-05-20T18:55:19.109Z,13.70
2019-05-20T18:57:48.783Z,10.63
2019-05-20T19:00:18.655Z,12.53
2019-05-20T19:02:54.144Z,10.08
2019-05-20T19:05:24.202Z,10.32
2019-05-20T19:07:54.160Z,9.90
2019-05-20T19:10:24.481Z,10.45
2019-05-20T19:12:54.238Z,11.83
2019-05-20T19:15:23.879Z,13.75
2019-05-20T19:17:53.617Z,9.15
2019-05-20T19:20:23.343Z,14.13
2019-05-20T19:22:52.989Z,13.72
2019-05-20T19:25:35.671Z,10.40
2019-05-20T19:27:54.110Z,19.37
2019-05-20T19:30:23.993Z,20.00
2019-05-20T19:32:53.632Z,11.63
2019-05-20T19:35:26.334Z,10.25
2019-05-20T19:37:56.876Z,8.90
2019-05-20T19:40:26.534Z,13.10
2019-05-20T19:42:56.247Z,9.15
2019-05-20T19:45:25.890Z,13.70
2019-05-20T19:47:55.565Z,10.75
2019-05-20T19:50:25.300Z,8.53
2019-05-20T19:52:55.305Z,8.50
2019-05-20T19:55:25.006Z,9.13
2019-05-20T19:57:54.710Z,10.40
2019-05-20T20:00:25.888Z,8.90
2019-05-20T20:02:55.582Z,14.83
2019-05-20T20:05:25.269Z,9.85
2019-05-20T20:07:55.029Z,8.28
2019-05-20T20:10:24.708Z,14.50
2019-05-20T20:12:54.727Z,11.20
2019-05-20T20:15:24.661Z,9.10
2019-05-20T20:17:56.329Z,9.35
2019-05-20T20:20:26.432Z,10.18
2019-05-20T20:22:56.472Z,17.62
2019-05-20T20:25:26.242Z,8.75
2019-05-20T20:27:58.252Z,11.30
2019-05-20T20:30:27.967Z,16.23
2019-05-20T20:32:57.858Z,8.85
2019-05-20T20:35:37.611Z,13.60
2019-05-20T20:38:02.057Z,10.00
2019-05-20T20:40:31.901Z,10.45
2019-05-20T20:43:06.709Z,8.70
2019-05-20T20:45:39.427Z,15.18
2019-05-20T20:48:09.072Z,11.15
2019-05-20T20:50:38.714Z,8.78
2019-05-20T20:53:08.332Z,11.50
2019-05-20T20:55:37.972Z,9.33
2019-05-20T20:58:11.381Z,8.93
2019-05-20T21:00:41.012Z,15.45
2019-05-20T21:03:10.632Z,6.28
2019-05-20T21:05:40.316Z,11.48
2019-05-20T21:08:10.001Z,9.30
2019-05-20T21:10:39.644Z,8.03
2019-05-20T21:13:09.269Z,21.68
2019-05-20T21:15:38.986Z,10.98
2019-05-20T21:18:09.853Z,8.55
2019-05-20T21:20:39.518Z,12.07
2019-05-20T21:23:10.104Z,7.50
2019-05-20T21:25:39.884Z,5.92
2019-05-20T21:28:09.604Z,9.90
2019-05-20T21:30:39.386Z,5.55
2019-05-20T21:33:09.834Z,14.35
2019-05-20T21:35:39.680Z,8.13
2019-05-20T21:38:09.320Z,9.48
2019-05-20T21:40:41.761Z,12.60
2019-05-20T21:43:11.372Z,4.90
2019-05-20T21:45:40.996Z,7.40
2019-05-20T21:48:10.644Z,6.33
2019-05-20T21:50:40.265Z,5.92
2019-05-20T21:53:10.007Z,6.00
2019-05-20T21:55:39.684Z,14.65
2019-05-20T21:58:09.476Z,10.85
2019-05-20T22:00:53.660Z,11.35
2019-05-20T22:03:25.449Z,11.22
2019-05-20T22:05:56.607Z,9.00
2019-05-20T22:08:27.901Z,10.85
2019-05-20T22:10:57.527Z,8.30
2019-05-20T22:13:27.200Z,9.48
2019-05-20T22:16:00.032Z,6.17
2019-05-20T22:18:29.765Z,7.55
2019-05-20T22:20:59.449Z,13.08
2019-05-20T22:23:40.202Z,10.25
2019-05-20T22:26:09.837Z,10.45
2019-05-20T22:28:39.477Z,7.65
2019-05-20T22:31:09.162Z,13.53
2019-05-20T22:33:42.247Z,8.93
2019-05-20T22:36:15.523Z,9.93
2019-05-20T22:38:45.210Z,19.12
2019-05-20T22:41:14.906Z,10.95
2019-05-20T22:43:49.697Z,10.20
2019-05-20T22:46:19.306Z,8.28
2019-05-20T22:48:48.940Z,7.90
2019-05-20T22:51:20.620Z,9.58
2019-05-20T22:53:50.360Z,14.58
2019-05-20T22:56:19.987Z,12.95
2019-05-20T22:58:49.618Z,13.95
2019-05-20T23:01:19.252Z,11.68
2019-05-20T23:03:56.378Z,12.93
2019-05-20T23:06:20.270Z,10.85
2019-05-20T23:08:49.888Z,10.10
2019-05-20T23:11:20.564Z,10.25
2019-05-20T23:13:50.245Z,6.70
2019-05-20T23:16:19.879Z,5.75
2019-05-20T23:18:49.552Z,10.15
2019-05-20T23:21:19.194Z,8.80
2019-05-20T23:23:48.804Z,11.10
2019-05-20T23:26:18.421Z,9.03
2019-05-20T23:28:51.387Z,9.60
2019-05-20T23:31:21.064Z,8.98
2019-05-20T23:33:50.739Z,13.72
2019-05-20T23:36:20.589Z,12.20
2019-05-20T23:38:50.355Z,5.47
2019-05-20T23:41:19.958Z,6.75
2019-05-20T23:43:49.622Z,6.00
2019-05-20T23:46:21.551Z,9.10
2019-05-20T23:48:51.225Z,9.53
2019-05-20T23:51:20.885Z,6.97
2019-05-20T23:53:53.340Z,5.03
2019-05-20T23:56:24.885Z,8.10
2019-05-20T23:58:54.575Z,8.33
